Langor, Minnesota
Current Conditions -  °F | °C
As of 10:53 AM on Thursday 30 Oct 2014 (Local Time) from KVWU Reporting Station
Overcast Overcast  
Wind Chill: 28°   Ceiling: 2400
Heat Index: 36°   Visibility: 10mi
Dew Point: 34°   Wind: 12mph
Humidity: 93%   Direction: 320°NW
Pressure: 30.15"   Gusts: 16mph
Location:  47.7306°N, 94.3762°W
Report Text: KVWU 301553Z AUTO 32010G14KT 10SM SCT011 BKN024 OVC030 02/01 A3015 RMK AO2
Loading
Personal Weather Stations






























Interactive Weather Map
Tropical Storm Tracking
New forecast layout! Learn more

10-Day Weather Forecast

Advertisements
Track Severe Weather on mobile